This is the latest recevied weather packets stored in our database for station/object AA4OM-2. If no packets are shown the sender has not sent any weather packets the latest 10 day(s).
| Time | Temp. | Humidity | Pressure | Rain* | Wind** | Luminosity | Snow |
|---|---|---|---|---|---|---|---|
| 1777605087 | 10° C | 90% | 1017 hPa | 0 mm | - | 0 W/m² | - |
| 1777604782 | 10.56° C | 89% | 1016.9 hPa | 0 mm | - | 0 W/m² | - |
| 1777604480 | 10.56° C | 89% | 1017 hPa | 0 mm | - | 0 W/m² | - |
| 1777604179 | 10.56° C | 89% | 1017.3 hPa | 0 mm | - | 0 W/m² | - |
| 1777603876 | 10.56° C | 89% | 1017.2 hPa | 0 mm | - | 0 W/m² | - |
| 1777603573 | 10.56° C | 88% | 1017 hPa | 0 mm | - | 0 W/m² | - |
| 1777603268 | 10.56° C | 89% | 1017 hPa | 0 mm | - | 0 W/m² | - |
| 1777602964 | 10.56° C | 89% | 1017.2 hPa | 0 mm | - | 0 W/m² | - |
| 1777602659 | 10.56° C | 89% | 1017.1 hPa | 0 mm | - | 0 W/m² | - |
| 1777602354 | 10.56° C | 89% | 1016.9 hPa | 0 mm | - | 0 W/m² | - |
| 1777602050 | 10.56° C | 89% | 1016.9 hPa | 0 mm | - | 0 W/m² | - |
| 1777601750 | 10.56° C | 89% | 1016.8 hPa | 0 mm | - | 0 W/m² | - |
| 1777601446 | 10.56° C | 88% | 1016.9 hPa | 0 mm | - | 0 W/m² | - |
| 1777601143 | 10.56° C | 89% | 1016.8 hPa | 0 mm | - | 0 W/m² | - |
| 1777584129 | 19.44° C | 37% | 1016.2 hPa | 0 mm | - | 476 W/m² | - |
| 1777583828 | 18.89° C | 32% | 1016.4 hPa | 0 mm | - | 555 W/m² | - |
| 1777582918 | 18.89° C | 36% | 1016.4 hPa | 0 mm | - | 632 W/m² | - |
| 1777582311 | 19.44° C | 35% | 1016.7 hPa | 0 mm | - | 420 W/m² | - |
| 1777580189 | 18.33° C | 35% | 1017 hPa | 0 mm | - | 744 W/m² | - |
| 1777579887 | 18.33° C | 34% | 1017.2 hPa | 0 mm | - | 787 W/m² | - |
| 1777579286 | 18.33° C | 39% | 1017.3 hPa | 0 mm | - | 812 W/m² | - |
| 1777578376 | 18.33° C | 34% | 1017.4 hPa | 0 mm | - | 836 W/m² | - |
| 1777577768 | 17.78° C | 33% | 1017.4 hPa | 0 mm | - | 899 W/m² | - |
| 1777577162 | 17.22° C | 37% | 1017.2 hPa | 0 mm | - | 653 W/m² | - |
| 1777576857 | 17.22° C | 43% | 1017.5 hPa | 0 mm | - | 670 W/m² | - |
* Rain latest hour (hover to see other rain measurements)
** Current wind speed in m/s (hover to see current wind gust speed)